Medford, OR

8:51 AM PDT on August 20, 2014 (GMT -0700)
Southwest Medford (CW2551) | Change Station
CLOSE
Current Station
Personal Weather Station
Location: Medford, OR
Elevation: 1472 ft
Nearby Weather Stations

Elev 1472 ft 42.31 °N, 122.90 °W | Updated 5 seconds ago

Clear
Clear
68.3 °F
Feels Like 68.3 °F
N
2.3
Wind Variable Wind from North
Gusts 2.3 mph

Today
High -- | Low -- °F
--% Chance of Precip.
Yesterday
High -- | Low -- °F
Precip. -- in
6:24 AM 8:04 PM
Waning Crescent, 21% visible
Pressure 29.91 in
Visibility 10.0 miles
Clouds Clear
Dew Point 58 °F
Humidity 69%
Rainfall 0.00 in
Snow Depth 0 in
UV 0.9 out of 12
Pollen 5.30 out of 12
Air Quality Not available.
Flu Activity Not available.
METAR KMFR 201453Z 00000KT 10SM CLR 19/13 A2994 RMK AO2 SLP128 T01890133 53013

More Conditions Fewer Conditions

Pressure 29.91 in
Visibility 10.0 miles
Clouds Clear
Dew Point 58 °F
Humidity 69%
Rainfall 0.00 in
Snow Depth 0 in
UV 0.9 out of 12
Pollen 5.30 out of 12
Air Quality Not available.
Flu Activity Not available.
METAR KMFR 201453Z 00000KT 10SM CLR 19/13 A2994 RMK AO2 SLP128 T01890133 53013

More Conditions Fewer Conditions

10-Day Weather Forecast

Almanac

Astronomy

Aug. 20, 2014 Rise Set
Actual Time 6:24 AM PDT 8:04 PM PDT
Civil Twilight 5:54 AM PDT 8:34 PM PDT
Nautical Twilight 5:18 AM PDT 9:10 PM PDT
Astronomical Twilight 4:39 AM PDT 9:49 PM PDT
Moon 2:06 AM PDT 4:55 PM PDT
Length of Visible Light 14h 40m
Length of Day
13h 40m
Tomorrow will be 2m 37s shorter.
Waning Crescent, 21% of the Moon is Illuminated
Today
Waning Crescent
Aug 25
New
Sep 2
First Quarter
Sep 8
Full
Sep 15
Last Quarter

Today's Extremes

State Highs State Lows

Community

WunderPhotos

Upload Photos

1,745,668 photos uploaded!

WunderBlogs® & News

Nearby

Snow Depth

Station Depth Elevation
Big Red Mountain 0 in 6250 ft
Fish Lake 0 in 4665 ft
Bigelow Camp 0 in 5120 ft
Billie Creek Divide 0 in 5300 ft
Fourmile Lake 1 in 6000 ft

Earthquake Activity

City Distance Mag. Time & Date
Rio Dell, California 148 miles 2.5 6:16 PM PDT
2014-08-13
Minimum magnitude displayed is 2.5.

Coastal Water Temperatures

Place Temperature
No Stations Reporting

Nearby Weather Stations